Time;durP1;ratioP1;P1;durP2;ratioP2;P2;SDS_P1;SDS_P2;PMS_P1;PMS_P2;Temp;Humidity;BMP_temperature;BMP_pressure;BME280_temperature;BME280_humidity;BME280_pressure;Samples;Min_cycle;Max_cycle;Signal;HPM_P1;HPM_P2
2024/02/25 00:00:24;;;;;;;0.98;0.50;;;4.50;1.00;;;;;;5120082;27;20427;-59
2024/02/25 00:02:51;;;;;;;1.67;0.70;;;4.40;1.00;;;;;;5111049;28;20469;-58
2024/02/25 00:05:20;;;;;;;1.00;0.50;;;4.40;1.00;;;;;;5115812;28;20412;-60
2024/02/25 00:07:47;;;;;;;1.20;0.50;;;4.40;1.00;;;;;;5115710;28;20436;-59
2024/02/25 00:10:14;;;;;;;0.88;0.50;;;4.50;1.00;;;;;;5113873;28;20460;-59
2024/02/25 00:12:41;;;;;;;1.70;0.60;;;4.50;1.00;;;;;;5114228;28;20471;-59
2024/02/25 00:15:09;;;;;;;1.30;0.60;;;4.50;1.00;;;;;;5112086;28;20410;-59
2024/02/25 00:17:36;;;;;;;1.17;0.50;;;4.60;1.00;;;;;;5113002;28;20528;-59
2024/02/25 00:20:04;;;;;;;0.80;0.40;;;4.60;1.00;;;;;;5119021;28;20420;-60
2024/02/25 00:22:32;;;;;;;4.20;0.80;;;4.60;1.00;;;;;;5116235;27;20895;-59
2024/02/25 00:24:59;;;;;;;2.47;0.82;;;4.70;1.00;;;;;;5119688;27;20515;-58
2024/02/25 00:27:26;;;;;;;1.17;0.60;;;4.60;1.00;;;;;;5114552;28;20424;-58
2024/02/25 00:29:53;;;;;;;1.77;0.68;;;4.70;1.00;;;;;;5111127;28;20473;-59
2024/02/25 00:32:20;;;;;;;0.82;0.50;;;4.70;99.90;;;;;;5114491;28;20459;-58
2024/02/25 00:34:47;;;;;;;0.63;0.45;;;4.70;1.00;;;;;;5115838;28;20428;-58
2024/02/25 00:37:14;;;;;;;1.10;0.60;;;4.90;1.00;;;;;;5115564;28;20428;-59
2024/02/25 00:39:43;;;;;;;0.95;0.50;;;4.90;99.90;;;;;;5121019;27;20473;-58
2024/02/25 00:42:10;;;;;;;0.70;0.50;;;4.90;99.90;;;;;;5112988;28;20453;-59
2024/02/25 00:44:38;;;;;;;1.00;0.60;;;4.80;99.90;;;;;;5118730;28;20476;-59
2024/02/25 00:47:05;;;;;;;3.30;0.70;;;4.80;99.90;;;;;;5118712;28;20451;-59
2024/02/25 00:49:32;;;;;;;0.90;0.50;;;4.70;99.90;;;;;;5112476;28;20528;-59
2024/02/25 00:51:59;;;;;;;1.63;0.60;;;4.60;99.90;;;;;;5117026;28;20416;-58
2024/02/25 00:54:26;;;;;;;1.02;0.60;;;4.40;1.00;;;;;;5113928;28;20499;-58
2024/02/25 00:56:54;;;;;;;1.50;0.60;;;4.30;1.00;;;;;;5118424;28;20821;-60
2024/02/25 00:59:21;;;;;;;2.00;0.60;;;4.30;1.00;;;;;;5115172;28;20499;-59
2024/02/25 01:01:50;;;;;;;0.90;0.40;;;4.20;1.00;;;;;;5111515;28;20468;-57
2024/02/25 01:04:18;;;;;;;0.80;0.50;;;4.30;1.00;;;;;;5114747;28;20718;-59
2024/02/25 01:06:46;;;;;;;0.75;0.40;;;4.30;1.00;;;;;;5112964;28;20423;-60
2024/02/25 01:09:13;;;;;;;0.70;0.50;;;4.40;1.00;;;;;;5113683;28;20856;-59
2024/02/25 01:11:40;;;;;;;1.80;0.50;;;4.40;1.00;;;;;;5114271;28;20806;-57
2024/02/25 01:14:09;;;;;;;1.20;0.50;;;4.40;1.00;;;;;;5113066;28;20848;-58
2024/02/25 01:16:38;;;;;;;1.10;0.50;;;4.40;1.00;;;;;;5114783;28;20465;-59
2024/02/25 01:19:05;;;;;;;3.40;0.70;;;4.40;1.00;;;;;;5113392;28;20711;-59
2024/02/25 01:21:32;;;;;;;1.17;0.52;;;4.40;1.00;;;;;;5112231;28;20457;-59
2024/02/25 01:23:59;;;;;;;1.20;0.60;;;4.40;1.00;;;;;;5109647;28;20502;-60
2024/02/25 01:26:27;;;;;;;1.55;0.50;;;4.30;1.00;;;;;;5109093;28;20800;-58
2024/02/25 01:28:54;;;;;;;1.70;0.60;;;4.30;1.00;;;;;;5115957;28;20439;-59
2024/02/25 01:31:23;;;;;;;0.98;0.50;;;4.40;1.00;;;;;;5111167;28;20432;-58
2024/02/25 01:33:50;;;;;;;1.88;0.60;;;4.40;1.00;;;;;;5108463;28;20409;-55
2024/02/25 01:36:17;;;;;;;0.90;0.40;;;4.40;1.00;;;;;;5112064;28;20469;-59
2024/02/25 01:38:44;;;;;;;0.95;0.45;;;4.50;1.00;;;;;;5111102;28;20438;-58
2024/02/25 01:41:11;;;;;;;1.73;0.40;;;4.50;1.00;;;;;;5113972;28;20702;-58
2024/02/25 01:43:40;;;;;;;0.98;0.43;;;4.50;1.00;;;;;;5106767;28;20454;-58
2024/02/25 01:46:07;;;;;;;0.73;0.50;;;4.50;1.00;;;;;;5116510;27;20503;-59
2024/02/25 01:48:35;;;;;;;1.00;0.40;;;4.50;99.90;;;;;;5113581;28;20428;-58
2024/02/25 01:51:05;;;;;;;1.10;0.50;;;4.50;1.00;;;;;;5113978;28;20514;-58
2024/02/25 01:53:32;;;;;;;0.60;0.40;;;4.50;99.90;;;;;;5114593;28;20423;-58
2024/02/25 01:55:59;;;;;;;1.10;0.40;;;4.50;1.00;;;;;;5117776;27;20807;-57
2024/02/25 01:58:26;;;;;;;1.23;0.40;;;4.40;1.00;;;;;;5104114;28;20453;-57
2024/02/25 02:00:54;;;;;;;1.30;0.50;;;4.50;1.00;;;;;;5108377;28;20911;-59
2024/02/25 02:03:21;;;;;;;1.15;0.47;;;4.50;1.00;;;;;;5109197;28;20495;-59
2024/02/25 02:05:49;;;;;;;1.13;0.40;;;4.50;1.00;;;;;;5111565;28;20440;-57
2024/02/25 02:08:17;;;;;;;2.00;0.40;;;4.50;99.90;;;;;;5104372;28;20440;-57
2024/02/25 02:10:44;;;;;;;0.90;0.47;;;4.50;99.90;;;;;;5107808;28;20506;-59
2024/02/25 02:13:12;;;;;;;0.70;0.40;;;4.40;99.90;;;;;;5110181;28;20825;-57
2024/02/25 02:15:39;;;;;;;1.33;0.50;;;4.30;1.00;;;;;;5111803;28;20422;-59
2024/02/25 02:18:07;;;;;;;1.70;0.50;;;4.30;1.00;;;;;;5112671;28;20421;-60
2024/02/25 02:20:34;;;;;;;0.73;0.40;;;4.30;1.00;;;;;;5113778;28;20489;-58
2024/02/25 02:23:02;;;;;;;1.00;0.50;;;4.30;1.00;;;;;;5104630;28;20457;-58
2024/02/25 02:25:29;;;;;;;1.20;0.50;;;4.30;1.00;;;;;;5103495;28;20414;-56
2024/02/25 02:27:56;;;;;;;0.80;0.40;;;4.30;1.00;;;;;;5111195;28;20444;-57
2024/02/25 02:30:24;;;;;;;1.75;0.50;;;4.30;1.00;;;;;;5101091;28;20410;-58
2024/02/25 02:32:51;;;;;;;0.80;0.40;;;4.30;1.00;;;;;;5107929;28;20442;-58
2024/02/25 02:35:18;;;;;;;1.25;0.40;;;4.40;1.00;;;;;;5108966;28;20507;-57
2024/02/25 02:37:45;;;;;;;1.25;0.50;;;4.40;1.00;;;;;;5116411;28;20739;-59
2024/02/25 02:40:14;;;;;;;1.15;0.50;;;4.40;1.00;;;;;;5113184;28;20420;-57
2024/02/25 02:42:41;;;;;;;1.50;0.50;;;4.40;99.90;;;;;;5112861;28;20770;-57
2024/02/25 02:45:09;;;;;;;0.80;0.50;;;4.40;1.00;;;;;;5112807;28;20493;-58
2024/02/25 02:47:36;;;;;;;1.20;0.50;;;4.50;1.00;;;;;;5111297;28;20418;-58
2024/02/25 02:50:04;;;;;;;1.85;0.50;;;4.50;99.90;;;;;;5113295;28;20439;-58
2024/02/25 02:52:31;;;;;;;0.90;0.47;;;4.50;99.90;;;;;;5109091;28;20511;-58
2024/02/25 02:54:58;;;;;;;0.80;0.50;;;4.60;1.00;;;;;;5107535;28;20412;-59
2024/02/25 02:57:26;;;;;;;1.10;0.50;;;4.60;99.90;;;;;;5106360;28;20834;-59
2024/02/25 02:59:53;;;;;;;1.00;0.50;;;4.60;99.90;;;;;;5112002;28;20467;-58
2024/02/25 03:02:22;;;;;;;0.73;0.40;;;4.40;99.90;;;;;;5112232;28;20444;-58
2024/02/25 03:04:50;;;;;;;1.20;0.50;;;4.50;1.00;;;;;;5105730;28;20430;-58
2024/02/25 03:07:17;;;;;;;0.80;0.50;;;4.50;99.90;;;;;;5105092;28;20424;-58
2024/02/25 03:09:44;;;;;;;0.70;0.40;;;4.40;99.90;;;;;;5108694;28;20433;-58
2024/02/25 03:12:11;;;;;;;1.52;0.60;;;4.40;99.90;;;;;;5109701;28;20501;-58
2024/02/25 03:14:40;;;;;;;1.10;0.50;;;4.40;99.90;;;;;;5111303;28;20778;-57
2024/02/25 03:17:07;;;;;;;0.70;0.40;;;4.30;99.90;;;;;;5111890;28;20504;-58
2024/02/25 03:19:34;;;;;;;1.50;0.50;;;4.30;99.90;;;;;;5107427;28;20515;-58
2024/02/25 03:22:01;;;;;;;1.40;0.50;;;4.30;1.00;;;;;;5110980;28;20451;-58
2024/02/25 03:24:28;;;;;;;0.85;0.50;;;4.30;1.00;;;;;;5108096;28;20865;-58
2024/02/25 03:26:55;;;;;;;1.27;0.50;;;4.40;1.00;;;;;;5108193;28;20461;-58
2024/02/25 03:29:22;;;;;;;1.13;0.50;;;4.40;99.90;;;;;;5108648;28;20735;-58
2024/02/25 03:31:51;;;;;;;0.88;0.40;;;4.40;99.90;;;;;;5101781;28;20681;-57
2024/02/25 03:34:18;;;;;;;0.70;0.40;;;4.40;99.90;;;;;;5110370;28;20815;-58
2024/02/25 03:36:46;;;;;;;0.80;0.40;;;4.40;99.90;;;;;;5110224;28;20459;-56
2024/02/25 03:39:13;;;;;;;1.17;0.50;;;4.40;99.90;;;;;;5112238;28;20424;-57
2024/02/25 03:41:40;;;;;;;0.70;0.40;;;4.40;1.00;;;;;;5112530;28;20434;-58
2024/02/25 03:44:07;;;;;;;1.40;0.60;;;4.40;99.90;;;;;;5108996;28;20460;-58
2024/02/25 03:46:34;;;;;;;0.60;0.30;;;4.40;99.90;;;;;;5110442;28;20769;-58
2024/02/25 03:49:06;;;;;;;0.60;0.40;;;4.50;99.90;;;;;;5112300;28;20889;-56
2024/02/25 03:51:33;;;;;;;0.60;0.40;;;4.40;99.90;;;;;;5107796;28;20501;-56
2024/02/25 03:54:00;;;;;;;1.08;0.40;;;4.40;99.90;;;;;;5112208;28;20477;-56
2024/02/25 03:56:27;;;;;;;0.70;0.40;;;4.40;99.90;;;;;;5112373;28;20431;-57
2024/02/25 03:58:54;;;;;;;0.80;0.40;;;4.40;99.90;;;;;;5111850;28;20926;-59
2024/02/25 04:01:22;;;;;;;1.05;0.50;;;4.40;99.90;;;;;;5112367;28;20492;-57
2024/02/25 04:03:49;;;;;;;0.82;0.40;;;4.40;99.90;;;;;;5111819;28;20503;-59
2024/02/25 04:06:18;;;;;;;1.00;0.40;;;4.30;99.90;;;;;;5105321;28;20466;-59
2024/02/25 04:08:45;;;;;;;0.60;0.40;;;4.30;99.90;;;;;;5110627;28;20520;-58
2024/02/25 04:11:12;;;;;;;0.73;0.40;;;4.40;99.90;;;;;;5108529;28;20514;-59
2024/02/25 04:13:38;;;;;;;0.60;0.40;;;4.30;99.90;;;;;;5105780;28;20448;-59
2024/02/25 04:16:06;;;;;;;0.60;0.47;;;4.30;99.90;;;;;;5110841;28;20776;-57
2024/02/25 04:18:32;;;;;;;0.80;0.50;;;4.30;99.90;;;;;;5110203;28;20836;-57
2024/02/25 04:21:00;;;;;;;0.60;0.40;;;4.40;99.90;;;;;;5112102;28;20554;-57
2024/02/25 04:23:28;;;;;;;0.70;0.40;;;4.40;99.90;;;;;;5113566;28;20423;-57
2024/02/25 04:25:55;;;;;;;1.60;0.95;;;4.40;99.90;;;;;;5119203;28;20424;-58
2024/02/25 04:28:22;;;;;;;1.42;0.70;;;4.40;99.90;;;;;;5115445;28;20523;-59
2024/02/25 04:30:49;;;;;;;0.60;0.40;;;4.30;99.90;;;;;;5114280;28;20514;-58
2024/02/25 04:33:16;;;;;;;1.30;0.40;;;4.40;99.90;;;;;;5114888;28;20408;-59
2024/02/25 04:35:43;;;;;;;0.98;0.40;;;4.40;99.90;;;;;;5112168;28;20871;-56
2024/02/25 04:38:12;;;;;;;1.00;0.50;;;4.40;1.00;;;;;;5109982;28;20464;-59
2024/02/25 04:40:40;;;;;;;0.70;0.43;;;4.30;99.90;;;;;;5110508;28;20425;-59
2024/02/25 04:43:07;;;;;;;0.80;0.40;;;4.20;99.90;;;;;;5112854;28;20551;-58
2024/02/25 04:45:34;;;;;;;0.98;0.40;;;4.10;99.90;;;;;;5111847;28;20438;-57
2024/02/25 04:48:01;;;;;;;0.90;0.40;;;4.10;99.90;;;;;;5114710;28;20412;-57
2024/02/25 04:50:27;;;;;;;0.90;0.50;;;4.10;99.90;;;;;;5115669;28;20579;-57
2024/02/25 04:52:54;;;;;;;0.77;0.40;;;4.20;99.90;;;;;;5110542;28;20426;-57
2024/02/25 04:55:21;;;;;;;0.80;0.50;;;4.20;99.90;;;;;;5113072;28;20809;-58
2024/02/25 04:57:49;;;;;;;0.50;0.30;;;4.20;99.90;;;;;;5117562;28;20861;-59
2024/02/25 05:00:17;;;;;;;1.02;0.50;;;4.20;99.90;;;;;;5116462;28;20482;-60
2024/02/25 05:02:46;;;;;;;0.90;0.40;;;4.20;99.90;;;;;;5114713;28;20869;-58
2024/02/25 05:05:13;;;;;;;0.70;0.40;;;4.20;99.90;;;;;;5114597;28;20473;-58
2024/02/25 05:07:39;;;;;;;0.90;0.40;;;4.20;99.90;;;;;;5113689;28;20421;-58
2024/02/25 05:10:08;;;;;;;1.40;0.50;;;4.20;99.90;;;;;;5112478;28;20520;-59
2024/02/25 05:12:35;;;;;;;0.60;0.40;;;4.20;99.90;;;;;;5110436;28;20422;-58
2024/02/25 05:15:04;;;;;;;0.70;0.40;;;4.20;99.90;;;;;;5118084;28;20420;-58
2024/02/25 05:17:30;;;;;;;0.63;0.40;;;4.10;99.90;;;;;;5111873;28;20430;-58
2024/02/25 05:19:57;;;;;;;0.90;0.40;;;4.20;99.90;;;;;;5114590;28;20416;-57
2024/02/25 05:22:24;;;;;;;1.30;0.50;;;4.20;99.90;;;;;;5114729;28;20514;-58
2024/02/25 05:24:51;;;;;;;0.80;0.40;;;4.20;99.90;;;;;;5114556;28;20487;-58
2024/02/25 05:27:18;;;;;;;0.65;0.30;;;4.30;99.90;;;;;;5112928;28;20451;-59
2024/02/25 05:29:45;;;;;;;0.70;0.40;;;4.30;99.90;;;;;;5113931;28;20584;-60
2024/02/25 05:32:15;;;;;;;0.90;0.38;;;4.40;99.90;;;;;;5111722;28;20444;-55
2024/02/25 05:34:42;;;;;;;0.80;0.43;;;4.60;99.90;;;;;;5114606;28;20424;-58
2024/02/25 05:37:09;;;;;;;1.23;0.40;;;4.70;1.00;;;;;;5113842;28;20466;-58
2024/02/25 05:39:36;;;;;;;0.70;0.50;;;4.60;1.00;;;;;;5114384;28;20766;-57
2024/02/25 05:42:03;;;;;;;0.60;0.40;;;4.70;21.90;;;;;;5114283;28;21032;-59
2024/02/25 05:44:30;;;;;;;0.88;0.50;;;4.70;1.00;;;;;;5114050;28;20427;-58
2024/02/25 05:46:56;;;;;;;1.40;0.40;;;4.60;1.00;;;;;;5114379;28;20502;-57
2024/02/25 05:49:25;;;;;;;1.60;0.50;;;4.50;16.50;;;;;;5114249;28;20601;-59
2024/02/25 05:51:51;;;;;;;0.70;0.35;;;4.70;1.00;;;;;;5111874;28;20587;-58
2024/02/25 05:54:18;;;;;;;0.60;0.40;;;4.70;1.00;;;;;;5106639;28;20513;-58
2024/02/25 05:56:45;;;;;;;0.70;0.40;;;4.80;1.00;;;;;;5115355;27;20518;-59
2024/02/25 05:59:12;;;;;;;1.15;0.43;;;4.70;1.00;;;;;;5108442;28;20889;-58
2024/02/25 06:01:39;;;;;;;1.50;0.50;;;4.60;99.90;;;;;;5108669;28;20420;-58
2024/02/25 06:04:07;;;;;;;0.60;0.40;;;4.50;1.00;;;;;;5107780;28;20452;-59
2024/02/25 06:06:36;;;;;;;0.93;0.40;;;4.50;99.90;;;;;;5111587;28;20424;-57
2024/02/25 06:09:04;;;;;;;1.10;0.47;;;4.40;99.90;;;;;;5111308;28;20455;-58
2024/02/25 06:11:31;;;;;;;0.70;0.40;;;4.50;99.90;;;;;;5110339;28;20433;-58
2024/02/25 06:13:58;;;;;;;0.70;0.50;;;4.50;90.20;;;;;;5106319;28;20513;-59
2024/02/25 06:16:32;;;;;;;1.10;0.40;;;4.60;88.00;;;;;;5111986;28;20467;-58
2024/02/25 06:18:59;;;;;;;1.60;0.52;;;4.60;1.00;;;;;;5111569;28;20420;-58
2024/02/25 06:21:26;;;;;;;0.80;0.50;;;4.50;99.90;;;;;;5105814;28;20443;-57
2024/02/25 06:23:55;;;;;;;1.00;0.50;;;4.40;1.00;;;;;;5113819;27;20477;-60
2024/02/25 06:26:22;;;;;;;1.15;0.40;;;4.30;1.00;;;;;;5114911;27;20941;-58
2024/02/25 06:28:49;;;;;;;1.00;0.55;;;4.20;31.50;;;;;;5107281;28;20909;-58
2024/02/25 06:31:16;;;;;;;0.93;0.50;;;4.20;99.90;;;;;;5107914;28;20449;-59
2024/02/25 06:33:43;;;;;;;1.00;0.50;;;4.20;99.90;;;;;;5113455;28;20504;-59
2024/02/25 06:36:19;;;;;;;0.80;0.50;;;4.20;23.30;;;;;;5111575;28;20426;-59
2024/02/25 06:38:46;;;;;;;0.88;0.52;;;4.20;87.50;;;;;;5118685;27;20485;-58
2024/02/25 06:41:19;;;;;;;0.90;0.50;;;4.20;99.90;;;;;;5108282;28;20424;-59
2024/02/25 06:43:46;;;;;;;0.85;0.47;;;4.20;99.90;;;;;;5108279;27;20430;-59
2024/02/25 06:46:14;;;;;;;0.80;0.40;;;4.30;99.90;;;;;;5107598;28;20477;-59
2024/02/25 06:48:40;;;;;;;0.73;0.50;;;4.40;99.90;;;;;;5107365;28;20416;-59
2024/02/25 06:51:19;;;;;;;1.30;0.53;;;4.40;1.60;;;;;;5104311;27;20521;-58
2024/02/25 06:53:46;;;;;;;2.10;0.50;;;4.30;99.90;;;;;;5107224;28;20424;-58
2024/02/25 06:56:14;;;;;;;1.20;0.50;;;4.30;99.90;;;;;;5113747;27;20443;-59
2024/02/25 06:58:42;;;;;;;0.63;0.50;;;4.50;1.00;;;;;;5110923;28;20439;-60
2024/02/25 07:01:10;;;;;;;0.70;0.40;;;4.60;99.90;;;;;;5115089;27;20507;-59
2024/02/25 07:03:37;;;;;;;1.15;0.50;;;4.80;99.90;;;;;;5107889;28;20461;-57
2024/02/25 07:06:05;;;;;;;0.70;0.50;;;4.90;10.00;;;;;;5107505;28;20936;-59
2024/02/25 07:08:31;;;;;;;0.80;0.60;;;4.90;1.00;;;;;;5114790;28;20425;-59
2024/02/25 07:10:58;;;;;;;1.05;0.57;;;4.90;1.00;;;;;;5119302;28;20462;-59
2024/02/25 07:13:48;;;;;;;0.80;0.50;;;4.90;1.00;;;;;;5114594;28;20444;-57
2024/02/25 07:16:17;;;;;;;0.80;0.40;;;4.90;99.90;;;;;;5097706;28;20529;-59
2024/02/25 07:18:44;;;;;;;1.05;0.50;;;4.90;1.00;;;;;;5115253;28;20420;-59
2024/02/25 07:21:13;;;;;;;1.30;0.50;;;4.80;99.90;;;;;;5114513;28;20473;-57
2024/02/25 07:23:41;;;;;;;0.70;0.40;;;4.90;99.90;;;;;;5115468;28;20428;-58
2024/02/25 07:26:09;;;;;;;1.10;0.40;;;4.90;99.90;;;;;;5115398;28;20475;-58
2024/02/25 07:28:36;;;;;;;1.02;0.40;;;5.00;1.00;;;;;;5123036;28;20509;-59
2024/02/25 07:31:03;;;;;;;0.80;0.40;;;5.00;1.00;;;;;;5136414;28;20487;-58
2024/02/25 07:33:31;;;;;;;0.70;0.43;;;4.90;99.90;;;;;;5135021;28;20422;-57
2024/02/25 07:35:58;;;;;;;0.95;0.40;;;5.00;1.00;;;;;;5120813;28;20479;-59
2024/02/25 07:38:28;;;;;;;1.15;0.50;;;5.00;1.00;;;;;;5120909;28;20434;-57
2024/02/25 07:40:54;;;;;;;0.75;0.40;;;5.10;99.90;;;;;;5136965;28;20860;-59
2024/02/25 07:43:24;;;;;;;0.70;0.40;;;5.10;22.60;;;;;;5133326;28;20426;-59
2024/02/25 07:45:51;;;;;;;0.80;0.40;;;5.10;99.90;;;;;;5121931;28;20421;-59
2024/02/25 07:48:18;;;;;;;0.75;0.40;;;5.20;1.00;;;;;;5133488;28;20795;-59
2024/02/25 07:50:46;;;;;;;0.70;0.30;;;5.30;1.00;;;;;;5135255;28;20436;-60
2024/02/25 07:53:13;;;;;;;0.70;0.40;;;5.40;73.20;;;;;;5133754;28;20415;-60
2024/02/25 07:55:40;;;;;;;0.50;0.30;;;5.40;1.00;;;;;;5134637;28;20419;-59
2024/02/25 07:58:07;;;;;;;0.70;0.40;;;5.50;62.40;;;;;;5133820;27;20667;-59
2024/02/25 08:00:34;;;;;;;1.98;0.40;;;5.50;1.00;;;;;;5137042;27;20425;-60
2024/02/25 08:03:01;;;;;;;0.50;0.32;;;5.50;1.00;;;;;;5117980;27;20428;-60
2024/02/25 08:05:28;;;;;;;0.68;0.40;;;5.60;99.90;;;;;;5116846;27;20884;-59
2024/02/25 08:07:56;;;;;;;1.30;0.40;;;5.90;1.00;;;;;;5138708;27;20422;-59
2024/02/25 08:10:24;;;;;;;1.10;0.40;;;6.00;99.90;;;;;;5127115;27;20518;-59
2024/02/25 08:12:51;;;;;;;1.80;0.40;;;6.00;99.90;;;;;;5119403;28;20507;-59
2024/02/25 08:15:18;;;;;;;2.10;0.30;;;6.10;99.90;;;;;;5116428;28;20775;-59
2024/02/25 08:17:45;;;;;;;0.60;0.30;;;6.30;99.90;;;;;;5116295;28;20460;-60
2024/02/25 08:20:12;;;;;;;0.60;0.40;;;6.40;99.90;;;;;;5132031;27;20603;-60
2024/02/25 08:22:39;;;;;;;0.75;0.38;;;6.50;1.00;;;;;;5121114;27;20422;-60
2024/02/25 08:25:09;;;;;;;0.60;0.30;;;6.50;1.00;;;;;;5108746;28;20498;-58
2024/02/25 08:27:36;;;;;;;4.18;2.20;;;6.40;1.00;;;;;;5113171;28;20800;-59
2024/02/25 08:30:03;;;;;;;1.30;0.50;;;6.40;1.00;;;;;;5118473;28;20768;-58
2024/02/25 08:32:31;;;;;;;0.70;0.40;;;6.30;1.00;;;;;;5107835;28;20775;-58
2024/02/25 08:34:58;;;;;;;0.70;0.40;;;6.50;31.90;;;;;;5115494;28;20727;-58
2024/02/25 08:37:26;;;;;;;0.75;0.50;;;6.60;1.00;;;;;;5121356;27;20477;-59
2024/02/25 08:39:53;;;;;;;0.80;0.40;;;6.50;1.00;;;;;;5119459;28;20412;-59
2024/02/25 08:42:22;;;;;;;0.63;0.40;;;6.60;1.00;;;;;;5113950;28;20511;-59
2024/02/25 08:44:50;;;;;;;0.80;0.40;;;6.60;1.00;;;;;;5116680;28;20467;-59
2024/02/25 08:47:17;;;;;;;0.50;0.30;;;6.60;1.00;;;;;;5117199;28;20505;-59
2024/02/25 08:49:44;;;;;;;0.60;0.30;;;6.70;1.00;;;;;;5113289;28;20510;-60
2024/02/25 08:52:11;;;;;;;1.77;0.40;;;6.80;1.00;;;;;;5101789;28;20515;-59
2024/02/25 08:54:38;;;;;;;1.40;0.30;;;6.90;1.00;;;;;;5107716;28;20526;-59
2024/02/25 08:57:06;;;;;;;0.50;0.30;;;7.00;1.00;;;;;;5106205;28;20838;-59
2024/02/25 08:59:34;;;;;;;0.68;0.30;;;7.00;1.00;;;;;;5105284;28;20436;-59
2024/02/25 09:02:04;;;;;;;1.20;0.32;;;7.00;1.00;;;;;;5109023;28;20499;-59
2024/02/25 09:04:31;;;;;;;1.00;0.30;;;7.00;1.00;;;;;;5098209;28;20419;-59
2024/02/25 09:06:58;;;;;;;1.50;0.30;;;7.10;99.90;;;;;;5105642;28;20431;-59
2024/02/25 09:09:26;;;;;;;0.80;0.30;;;7.10;99.90;;;;;;5116601;28;20411;-59
2024/02/25 09:11:53;;;;;;;0.50;0.30;;;7.10;99.90;;;;;;5116426;28;20786;-60
2024/02/25 09:14:20;;;;;;;0.40;0.30;;;7.00;99.90;;;;;;5116464;28;20462;-59
2024/02/25 09:16:49;;;;;;;0.40;0.20;;;7.00;99.90;;;;;;5116516;28;20420;-57
2024/02/25 09:19:16;;;;;;;1.67;0.30;;;7.00;99.90;;;;;;5108198;28;20818;-59
2024/02/25 09:21:47;;;;;;;0.50;0.30;;;7.00;99.90;;;;;;5112908;28;20496;-59
2024/02/25 09:24:14;;;;;;;0.50;0.30;;;7.00;99.90;;;;;;5101050;28;20521;-59
2024/02/25 09:26:43;;;;;;;0.60;0.30;;;7.10;99.90;;;;;;5097391;28;20440;-59
2024/02/25 09:29:09;;;;;;;0.50;0.30;;;7.20;99.90;;;;;;5117290;28;20436;-59
2024/02/25 09:31:36;;;;;;;0.70;0.30;;;7.30;99.90;;;;;;5116804;28;20432;-58
2024/02/25 09:34:05;;;;;;;0.60;0.30;;;7.40;99.90;;;;;;5117436;28;20971;-59
2024/02/25 09:36:32;;;;;;;0.40;0.20;;;7.50;99.90;;;;;;5115075;28;20431;-59
2024/02/25 09:38:59;;;;;;;0.50;0.25;;;7.70;99.90;;;;;;5115645;28;20551;-59
2024/02/25 09:41:28;;;;;;;0.70;0.28;;;7.80;99.90;;;;;;5115661;28;20420;-59
2024/02/25 09:43:55;;;;;;;0.50;0.22;;;8.00;99.90;;;;;;5119773;27;20425;-58
2024/02/25 09:46:23;;;;;;;0.50;0.20;;;8.10;99.90;;;;;;5112723;28;20694;-57
2024/02/25 09:48:52;;;;;;;0.47;0.20;;;8.20;99.90;;;;;;5115048;28;20432;-60
2024/02/25 09:51:21;;;;;;;0.77;0.23;;;8.00;99.90;;;;;;5099782;28;20444;-61
2024/02/25 09:53:52;;;;;;;0.95;0.30;;;8.00;99.90;;;;;;5104903;28;20426;-61
2024/02/25 09:56:19;;;;;;;0.60;0.20;;;7.90;99.90;;;;;;5090673;28;20513;-61
2024/02/25 09:58:46;;;;;;;0.50;0.20;;;7.80;99.90;;;;;;5111457;28;20427;-61
2024/02/25 10:01:13;;;;;;;0.50;0.20;;;7.90;99.90;;;;;;5106176;28;20430;-61
2024/02/25 10:03:42;;;;;;;0.73;0.20;;;8.10;99.90;;;;;;5108377;28;20545;-61
2024/02/25 10:06:10;;;;;;;0.50;0.20;;;8.30;99.90;;;;;;5116965;28;20451;-61
2024/02/25 10:08:48;;;;;;;0.50;0.20;;;8.30;75.90;;;;;;5110705;28;20425;-61
2024/02/25 10:11:15;;;;;;;0.40;0.20;;;8.40;58.70;;;;;;5097329;28;20514;-61
2024/02/25 10:13:43;;;;;;;0.40;0.20;;;8.50;24.50;;;;;;5116908;28;20423;-61
2024/02/25 10:16:16;;;;;;;0.30;0.20;;;8.50;24.40;;;;;;5115733;28;20426;-61
2024/02/25 10:18:43;;;;;;;0.50;0.20;;;8.60;1.80;;;;;;5117464;28;20420;-61
2024/02/25 10:21:12;;;;;;;0.40;0.10;;;8.60;1.00;;;;;;5116814;28;20514;-61
2024/02/25 10:23:39;;;;;;;0.30;0.10;;;8.50;1.00;;;;;;5107125;28;20453;-61
2024/02/25 10:26:15;;;;;;;0.50;0.20;;;8.50;1.00;;;;;;5107755;28;20499;-62
2024/02/25 10:28:42;;;;;;;0.40;0.15;;;8.70;1.00;;;;;;5108985;28;20434;-61
2024/02/25 10:31:12;;;;;;;0.38;0.10;;;8.90;1.00;;;;;;5110753;28;20435;-61
2024/02/25 10:33:40;;;;;;;0.30;0.10;;;9.00;1.00;;;;;;5115746;28;20880;-62
2024/02/25 10:36:09;;;;;;;0.40;0.10;;;9.10;1.00;;;;;;5112378;28;20958;-61
2024/02/25 10:38:40;;;;;;;0.70;0.17;;;9.30;1.00;;;;;;5108720;28;20522;-61
2024/02/25 10:41:08;;;;;;;0.30;0.10;;;9.40;1.00;;;;;;5126398;27;20424;-62
2024/02/25 10:43:38;;;;;;;0.30;0.10;;;9.40;1.00;;;;;;5123528;27;20845;-61
2024/02/25 10:46:14;;;;;;;0.40;0.10;;;9.40;1.00;;;;;;5115140;27;20419;-62
2024/02/25 10:48:43;;;;;;;0.80;0.10;;;9.60;1.00;;;;;;5112065;28;20959;-62
2024/02/25 10:51:11;;;;;;;0.30;0.10;;;9.60;1.00;;;;;;5124414;27;20430;-62
2024/02/25 10:53:41;;;;;;;0.30;0.10;;;9.80;1.00;;;;;;5121396;27;20772;-61
2024/02/25 10:56:14;;;;;;;0.30;0.10;;;10.10;1.00;;;;;;5114659;28;20438;-62
2024/02/25 10:58:43;;;;;;;0.50;0.10;;;10.30;1.00;;;;;;5113795;28;20511;-62
2024/02/25 11:01:11;;;;;;;0.30;0.10;;;10.40;1.00;;;;;;5113218;28;20511;-62
2024/02/25 11:03:40;;;;;;;0.40;0.15;;;10.50;1.00;;;;;;5112744;28;20431;-61
2024/02/25 11:06:07;;;;;;;0.50;0.20;;;10.50;1.00;;;;;;5114162;28;21024;-61
2024/02/25 11:08:35;;;;;;;0.40;0.10;;;10.50;1.00;;;;;;5128763;27;20433;-61
2024/02/25 11:11:09;;;;;;;0.30;0.10;;;10.60;1.00;;;;;;5136017;27;20461;-61
2024/02/25 11:13:43;;;;;;;0.30;0.10;;;11.60;1.00;;;;;;5132662;27;20511;-61
2024/02/25 11:16:10;;;;;;;0.30;0.10;;;12.00;1.00;;;;;;5116218;28;20519;-61
2024/02/25 11:18:43;;;;;;;0.50;0.20;;;11.90;1.00;;;;;;5115819;28;20506;-61
2024/02/25 11:21:12;;;;;;;0.40;0.20;;;11.90;1.00;;;;;;5116019;28;20424;-62
2024/02/25 11:23:43;;;;;;;0.30;0.10;;;12.10;1.00;;;;;;5116068;28;20874;-62
2024/02/25 11:26:41;;;;;;;0.30;0.10;;;11.70;1.00;;;;;;5114167;28;20520;-62
2024/02/25 11:29:20;;;;;;;0.30;0.10;;;11.70;1.00;;;;;;5113884;28;20448;-62
2024/02/25 11:31:55;;;;;;;0.40;0.20;;;11.50;1.00;;;;;;5128444;27;20439;-62
2024/02/25 11:34:23;;;;;;;0.50;0.20;;;11.50;1.00;;;;;;5131277;27;20485;-63
2024/02/25 11:36:52;;;;;;;0.40;0.20;;;11.90;1.00;;;;;;5137990;27;20489;-63
2024/02/25 11:39:25;;;;;;;0.40;0.20;;;12.00;1.00;;;;;;5140765;27;20524;-63
2024/02/25 11:41:55;;;;;;;0.30;0.10;;;12.20;1.00;;;;;;5099411;28;20804;-63
2024/02/25 11:44:25;;;;;;;0.40;0.20;;;12.20;1.00;;;;;;5110749;28;20425;-63
2024/02/25 11:46:56;;;;;;;0.40;0.20;;;12.30;1.00;;;;;;5120100;28;20408;-63
2024/02/25 11:49:24;;;;;;;0.80;0.20;;;12.20;1.00;;;;;;5117582;28;20416;-62
2024/02/25 11:51:51;;;;;;;0.30;0.10;;;12.20;1.00;;;;;;5121086;27;20543;-64
2024/02/25 11:54:18;;;;;;;0.50;0.20;;;12.10;1.00;;;;;;5138703;27;20503;-63
2024/02/25 11:56:44;;;;;;;0.40;0.20;;;12.20;1.00;;;;;;5140203;27;20522;-63
2024/02/25 11:59:13;;;;;;;0.50;0.20;;;12.40;1.00;;;;;;5138804;27;20437;-63
2024/02/25 12:01:43;;;;;;;0.68;0.30;;;12.70;1.00;;;;;;5138179;27;20497;-63
2024/02/25 12:04:11;;;;;;;0.30;0.20;;;13.00;1.00;;;;;;5140194;27;20418;-62
2024/02/25 12:06:38;;;;;;;0.40;0.10;;;12.90;1.00;;;;;;5139690;27;20460;-63
2024/02/25 12:09:07;;;;;;;0.50;0.20;;;12.90;1.00;;;;;;5140102;27;20513;-63
2024/02/25 12:11:35;;;;;;;0.40;0.20;;;13.00;1.00;;;;;;5139060;27;20429;-62
2024/02/25 12:14:04;;;;;;;0.50;0.20;;;12.80;1.00;;;;;;5130912;27;20416;-63
2024/02/25 12:16:30;;;;;;;0.40;0.20;;;12.60;1.00;;;;;;5120140;28;20447;-63
2024/02/25 12:18:59;;;;;;;0.50;0.20;;;12.70;1.00;;;;;;5118777;28;20759;-63
2024/02/25 12:21:27;;;;;;;0.40;0.20;;;12.60;1.00;;;;;;5115981;28;20512;-62
2024/02/25 12:23:59;;;;;;;0.40;0.20;;;12.40;1.00;;;;;;5116307;28;20914;-63
2024/02/25 12:26:26;;;;;;;0.30;0.10;;;12.50;1.00;;;;;;5118143;28;20435;-63
2024/02/25 12:28:53;;;;;;;0.40;0.10;;;12.40;1.00;;;;;;5111502;28;20509;-63
2024/02/25 12:31:22;;;;;;;0.30;0.10;;;12.30;1.00;;;;;;5110241;28;20519;-64
2024/02/25 12:33:50;;;;;;;0.30;0.10;;;12.30;1.00;;;;;;5116222;28;20482;-63
2024/02/25 12:36:18;;;;;;;0.60;0.10;;;12.30;1.00;;;;;;5112723;27;20434;-63
2024/02/25 12:38:50;;;;;;;0.40;0.10;;;12.30;1.00;;;;;;5122185;27;20525;-63
2024/02/25 12:41:21;;;;;;;0.50;0.10;;;12.30;1.00;;;;;;5116836;28;20432;-63
2024/02/25 12:43:51;;;;;;;0.40;0.20;;;12.30;1.00;;;;;;5113250;28;20810;-63
2024/02/25 12:46:20;;;;;;;0.40;0.10;;;12.30;1.00;;;;;;5118131;28;20424;-63
2024/02/25 12:48:48;;;;;;;0.40;0.20;;;12.40;1.00;;;;;;5118094;28;20517;-63
2024/02/25 12:51:17;;;;;;;0.40;0.20;;;12.50;1.00;;;;;;5116957;28;20450;-63
2024/02/25 12:53:46;;;;;;;0.30;0.10;;;12.50;1.00;;;;;;5117097;28;20687;-63
2024/02/25 12:56:14;;;;;;;0.30;0.10;;;12.40;1.00;;;;;;5118214;27;20428;-62
2024/02/25 12:58:43;;;;;;;0.50;0.20;;;12.30;1.00;;;;;;5117727;28;20425;-63
2024/02/25 13:01:10;;;;;;;0.30;0.10;;;12.60;1.00;;;;;;5109025;28;20458;-63
2024/02/25 13:03:38;;;;;;;0.40;0.13;;;12.70;1.00;;;;;;5108093;27;20469;-61